sensor_id;sensor_type;location;lat;lon;timestamp;temperature;humidity
45329;DHT22;31063;48.356;10.896;2023-05-21T00:01:49;16.30;99.90
45329;DHT22;31063;48.356;10.896;2023-05-21T00:04:15;16.30;99.90
45329;DHT22;31063;48.356;10.896;2023-05-21T00:06:42;16.30;99.90
45329;DHT22;31063;48.356;10.896;2023-05-21T00:09:07;16.30;99.90
45329;DHT22;31063;48.356;10.896;2023-05-21T00:11:33;16.30;99.90
45329;DHT22;31063;48.356;10.896;2023-05-21T00:13:59;16.30;99.90
45329;DHT22;31063;48.356;10.896;2023-05-21T00:16:25;16.30;99.90
45329;DHT22;31063;48.356;10.896;2023-05-21T00:18:50;16.30;99.90
45329;DHT22;31063;48.356;10.896;2023-05-21T00:21:18;16.30;99.90
45329;DHT22;31063;48.356;10.896;2023-05-21T00:23:48;16.30;99.90
45329;DHT22;31063;48.356;10.896;2023-05-21T00:26:14;16.30;99.90
45329;DHT22;31063;48.356;10.896;2023-05-21T00:28:40;16.20;99.90
45329;DHT22;31063;48.356;10.896;2023-05-21T00:31:05;16.20;99.90
45329;DHT22;31063;48.356;10.896;2023-05-21T00:33:31;16.20;99.90
45329;DHT22;31063;48.356;10.896;2023-05-21T00:35:57;16.10;99.90
45329;DHT22;31063;48.356;10.896;2023-05-21T00:38:22;16.10;99.90
45329;DHT22;31063;48.356;10.896;2023-05-21T00:40:49;16.10;99.90
45329;DHT22;31063;48.356;10.896;2023-05-21T00:43:14;16.10;99.90
45329;DHT22;31063;48.356;10.896;2023-05-21T00:45:41;16.10;99.90
45329;DHT22;31063;48.356;10.896;2023-05-21T00:48:11;16.10;99.90
45329;DHT22;31063;48.356;10.896;2023-05-21T00:50:37;16.00;99.90
45329;DHT22;31063;48.356;10.896;2023-05-21T00:53:06;16.00;99.90
45329;DHT22;31063;48.356;10.896;2023-05-21T00:55:38;16.00;99.90
45329;DHT22;31063;48.356;10.896;2023-05-21T00:58:04;15.90;99.90
45329;DHT22;31063;48.356;10.896;2023-05-21T01:00:34;15.90;99.90
45329;DHT22;31063;48.356;10.896;2023-05-21T01:03:00;15.90;99.90
45329;DHT22;31063;48.356;10.896;2023-05-21T01:05:27;15.90;99.90
45329;DHT22;31063;48.356;10.896;2023-05-21T01:07:53;15.90;99.90
45329;DHT22;31063;48.356;10.896;2023-05-21T01:10:20;15.80;99.90
45329;DHT22;31063;48.356;10.896;2023-05-21T01:12:46;15.80;99.90
45329;DHT22;31063;48.356;10.896;2023-05-21T01:15:12;15.80;99.90
45329;DHT22;31063;48.356;10.896;2023-05-21T01:17:38;15.80;99.90
45329;DHT22;31063;48.356;10.896;2023-05-21T01:20:06;15.80;99.90
45329;DHT22;31063;48.356;10.896;2023-05-21T01:22:35;15.70;99.90
45329;DHT22;31063;48.356;10.896;2023-05-21T01:25:02;15.70;99.90
45329;DHT22;31063;48.356;10.896;2023-05-21T01:27:28;15.70;99.90
45329;DHT22;31063;48.356;10.896;2023-05-21T01:29:54;15.70;99.90
45329;DHT22;31063;48.356;10.896;2023-05-21T01:32:40;15.70;99.90
45329;DHT22;31063;48.356;10.896;2023-05-21T01:35:19;15.70;99.90
45329;DHT22;31063;48.356;10.896;2023-05-21T01:37:54;15.60;99.90
45329;DHT22;31063;48.356;10.896;2023-05-21T01:40:44;15.60;99.90
45329;DHT22;31063;48.356;10.896;2023-05-21T01:43:11;15.60;99.90
45329;DHT22;31063;48.356;10.896;2023-05-21T01:45:39;15.60;99.90
45329;DHT22;31063;48.356;10.896;2023-05-21T01:48:07;15.50;99.90
45329;DHT22;31063;48.356;10.896;2023-05-21T01:50:34;15.50;99.90
45329;DHT22;31063;48.356;10.896;2023-05-21T01:53:01;15.40;99.90
45329;DHT22;31063;48.356;10.896;2023-05-21T01:55:28;15.40;99.90
45329;DHT22;31063;48.356;10.896;2023-05-21T01:57:55;15.40;99.90
45329;DHT22;31063;48.356;10.896;2023-05-21T02:00:22;15.40;99.90
45329;DHT22;31063;48.356;10.896;2023-05-21T02:02:49;15.40;99.90
45329;DHT22;31063;48.356;10.896;2023-05-21T02:05:14;15.40;99.90
45329;DHT22;31063;48.356;10.896;2023-05-21T02:07:41;15.40;99.90
45329;DHT22;31063;48.356;10.896;2023-05-21T02:10:08;15.40;99.90
45329;DHT22;31063;48.356;10.896;2023-05-21T02:12:35;15.30;99.90
45329;DHT22;31063;48.356;10.896;2023-05-21T02:15:00;15.30;99.90
45329;DHT22;31063;48.356;10.896;2023-05-21T02:17:27;15.30;99.90
45329;DHT22;31063;48.356;10.896;2023-05-21T02:19:55;15.30;99.90
45329;DHT22;31063;48.356;10.896;2023-05-21T02:22:21;15.30;99.90
45329;DHT22;31063;48.356;10.896;2023-05-21T02:24:47;15.30;99.90
45329;DHT22;31063;48.356;10.896;2023-05-21T02:27:13;15.30;99.90
45329;DHT22;31063;48.356;10.896;2023-05-21T02:29:41;15.30;99.90
45329;DHT22;31063;48.356;10.896;2023-05-21T02:32:07;15.30;99.90
45329;DHT22;31063;48.356;10.896;2023-05-21T02:34:33;15.30;99.90
45329;DHT22;31063;48.356;10.896;2023-05-21T02:37:00;15.20;99.90
45329;DHT22;31063;48.356;10.896;2023-05-21T02:39:26;15.20;99.90
45329;DHT22;31063;48.356;10.896;2023-05-21T02:41:52;15.20;99.90
45329;DHT22;31063;48.356;10.896;2023-05-21T02:44:17;15.20;99.90
45329;DHT22;31063;48.356;10.896;2023-05-21T02:46:45;15.20;99.90
45329;DHT22;31063;48.356;10.896;2023-05-21T02:49:10;15.10;99.90
45329;DHT22;31063;48.356;10.896;2023-05-21T02:51:36;15.10;99.90
45329;DHT22;31063;48.356;10.896;2023-05-21T02:54:02;15.10;99.90
45329;DHT22;31063;48.356;10.896;2023-05-21T02:56:28;15.10;99.90
45329;DHT22;31063;48.356;10.896;2023-05-21T02:58:53;15.10;99.90
45329;DHT22;31063;48.356;10.896;2023-05-21T03:01:19;15.00;99.90
45329;DHT22;31063;48.356;10.896;2023-05-21T03:03:44;14.90;99.90
45329;DHT22;31063;48.356;10.896;2023-05-21T03:06:10;14.90;99.90
45329;DHT22;31063;48.356;10.896;2023-05-21T03:08:36;14.90;99.90
45329;DHT22;31063;48.356;10.896;2023-05-21T03:11:01;14.90;99.90
45329;DHT22;31063;48.356;10.896;2023-05-21T03:13:27;14.80;99.90
45329;DHT22;31063;48.356;10.896;2023-05-21T03:15:53;14.80;99.90
45329;DHT22;31063;48.356;10.896;2023-05-21T03:18:21;14.80;99.90
45329;DHT22;31063;48.356;10.896;2023-05-21T03:20:46;14.80;99.90
45329;DHT22;31063;48.356;10.896;2023-05-21T03:23:12;14.70;99.90
45329;DHT22;31063;48.356;10.896;2023-05-21T03:25:39;14.70;99.90
45329;DHT22;31063;48.356;10.896;2023-05-21T03:28:04;14.60;99.90
45329;DHT22;31063;48.356;10.896;2023-05-21T03:30:31;14.60;99.90
45329;DHT22;31063;48.356;10.896;2023-05-21T03:32:57;14.60;99.90
45329;DHT22;31063;48.356;10.896;2023-05-21T03:35:24;14.60;99.90
45329;DHT22;31063;48.356;10.896;2023-05-21T03:37:50;14.60;99.90
45329;DHT22;31063;48.356;10.896;2023-05-21T03:40:15;14.50;99.90
45329;DHT22;31063;48.356;10.896;2023-05-21T03:42:41;14.60;99.90
45329;DHT22;31063;48.356;10.896;2023-05-21T03:45:07;14.50;99.90
45329;DHT22;31063;48.356;10.896;2023-05-21T03:47:33;14.50;99.90
45329;DHT22;31063;48.356;10.896;2023-05-21T03:50:00;14.40;99.90
45329;DHT22;31063;48.356;10.896;2023-05-21T03:52:26;14.50;99.90
45329;DHT22;31063;48.356;10.896;2023-05-21T03:54:52;14.50;99.90
45329;DHT22;31063;48.356;10.896;2023-05-21T03:57:17;14.50;99.90
45329;DHT22;31063;48.356;10.896;2023-05-21T03:59:43;14.50;99.90
45329;DHT22;31063;48.356;10.896;2023-05-21T04:02:09;14.50;99.90
45329;DHT22;31063;48.356;10.896;2023-05-21T04:04:35;14.40;99.90
45329;DHT22;31063;48.356;10.896;2023-05-21T04:07:01;14.40;99.90
45329;DHT22;31063;48.356;10.896;2023-05-21T04:09:29;14.40;99.90
45329;DHT22;31063;48.356;10.896;2023-05-21T04:11:54;14.40;99.90
45329;DHT22;31063;48.356;10.896;2023-05-21T04:14:21;14.30;99.90
45329;DHT22;31063;48.356;10.896;2023-05-21T04:16:47;14.30;99.90
45329;DHT22;31063;48.356;10.896;2023-05-21T04:19:13;14.30;99.90
45329;DHT22;31063;48.356;10.896;2023-05-21T04:21:39;14.40;99.90
45329;DHT22;31063;48.356;10.896;2023-05-21T04:24:04;14.40;99.90
45329;DHT22;31063;48.356;10.896;2023-05-21T04:26:30;14.40;99.90
45329;DHT22;31063;48.356;10.896;2023-05-21T04:28:58;14.50;99.90
45329;DHT22;31063;48.356;10.896;2023-05-21T04:31:27;14.50;99.90
45329;DHT22;31063;48.356;10.896;2023-05-21T04:33:53;14.60;99.90
45329;DHT22;31063;48.356;10.896;2023-05-21T04:36:18;14.60;99.90
45329;DHT22;31063;48.356;10.896;2023-05-21T04:38:44;14.70;99.90
45329;DHT22;31063;48.356;10.896;2023-05-21T04:41:10;14.70;99.90
45329;DHT22;31063;48.356;10.896;2023-05-21T04:43:35;14.80;99.90
45329;DHT22;31063;48.356;10.896;2023-05-21T04:46:01;14.80;99.90
45329;DHT22;31063;48.356;10.896;2023-05-21T04:48:26;14.90;99.90
45329;DHT22;31063;48.356;10.896;2023-05-21T04:50:53;14.90;99.90
45329;DHT22;31063;48.356;10.896;2023-05-21T04:53:21;14.80;99.90
45329;DHT22;31063;48.356;10.896;2023-05-21T04:55:46;14.80;99.90
45329;DHT22;31063;48.356;10.896;2023-05-21T04:58:12;14.90;99.90
45329;DHT22;31063;48.356;10.896;2023-05-21T05:00:38;15.00;99.90
45329;DHT22;31063;48.356;10.896;2023-05-21T05:03:04;14.90;99.90
45329;DHT22;31063;48.356;10.896;2023-05-21T05:05:30;15.00;99.90
45329;DHT22;31063;48.356;10.896;2023-05-21T05:07:56;15.10;99.90
45329;DHT22;31063;48.356;10.896;2023-05-21T05:10:22;15.10;99.90
45329;DHT22;31063;48.356;10.896;2023-05-21T05:12:48;15.10;99.90
45329;DHT22;31063;48.356;10.896;2023-05-21T05:15:13;15.20;99.90
45329;DHT22;31063;48.356;10.896;2023-05-21T05:17:39;15.30;99.90
45329;DHT22;31063;48.356;10.896;2023-05-21T05:20:09;15.30;99.90
45329;DHT22;31063;48.356;10.896;2023-05-21T05:22:35;15.40;99.90
45329;DHT22;31063;48.356;10.896;2023-05-21T05:25:00;15.40;99.90
45329;DHT22;31063;48.356;10.896;2023-05-21T05:27:26;15.40;99.90
45329;DHT22;31063;48.356;10.896;2023-05-21T05:29:51;15.50;99.90
45329;DHT22;31063;48.356;10.896;2023-05-21T05:32:17;15.60;99.90
45329;DHT22;31063;48.356;10.896;2023-05-21T05:34:44;15.70;99.90
45329;DHT22;31063;48.356;10.896;2023-05-21T05:37:10;15.80;99.90
45329;DHT22;31063;48.356;10.896;2023-05-21T05:39:36;15.80;99.90
45329;DHT22;31063;48.356;10.896;2023-05-21T05:42:02;15.80;99.90
45329;DHT22;31063;48.356;10.896;2023-05-21T05:44:28;15.90;99.90
45329;DHT22;31063;48.356;10.896;2023-05-21T05:46:53;15.90;99.90
45329;DHT22;31063;48.356;10.896;2023-05-21T05:49:19;15.90;99.90
45329;DHT22;31063;48.356;10.896;2023-05-21T05:51:45;16.00;99.90
45329;DHT22;31063;48.356;10.896;2023-05-21T05:54:10;16.00;99.90
45329;DHT22;31063;48.356;10.896;2023-05-21T05:56:36;16.10;99.90
45329;DHT22;31063;48.356;10.896;2023-05-21T05:59:01;16.10;99.90
45329;DHT22;31063;48.356;10.896;2023-05-21T06:01:27;16.10;99.90
45329;DHT22;31063;48.356;10.896;2023-05-21T06:03:53;16.20;99.90
45329;DHT22;31063;48.356;10.896;2023-05-21T06:06:18;16.20;99.90
45329;DHT22;31063;48.356;10.896;2023-05-21T06:08:44;16.30;99.90
45329;DHT22;31063;48.356;10.896;2023-05-21T06:11:10;16.40;99.90
45329;DHT22;31063;48.356;10.896;2023-05-21T06:13:36;16.40;99.90
45329;DHT22;31063;48.356;10.896;2023-05-21T06:16:02;16.40;99.90
45329;DHT22;31063;48.356;10.896;2023-05-21T06:18:28;16.50;99.90
45329;DHT22;31063;48.356;10.896;2023-05-21T06:20:54;16.40;99.90
45329;DHT22;31063;48.356;10.896;2023-05-21T06:23:19;16.50;99.90
45329;DHT22;31063;48.356;10.896;2023-05-21T06:25:45;16.60;99.90
45329;DHT22;31063;48.356;10.896;2023-05-21T06:28:11;16.60;99.90
45329;DHT22;31063;48.356;10.896;2023-05-21T06:30:36;16.60;99.90
45329;DHT22;31063;48.356;10.896;2023-05-21T06:33:02;16.70;99.90
45329;DHT22;31063;48.356;10.896;2023-05-21T06:35:27;16.70;99.90
45329;DHT22;31063;48.356;10.896;2023-05-21T06:37:53;16.80;99.90
45329;DHT22;31063;48.356;10.896;2023-05-21T06:40:19;16.90;99.90
45329;DHT22;31063;48.356;10.896;2023-05-21T06:42:45;17.00;99.90
45329;DHT22;31063;48.356;10.896;2023-05-21T06:45:11;17.10;99.90
45329;DHT22;31063;48.356;10.896;2023-05-21T06:47:36;17.10;99.90
45329;DHT22;31063;48.356;10.896;2023-05-21T06:50:02;17.20;99.90
45329;DHT22;31063;48.356;10.896;2023-05-21T06:52:28;17.30;99.90
45329;DHT22;31063;48.356;10.896;2023-05-21T06:54:53;17.40;99.90
45329;DHT22;31063;48.356;10.896;2023-05-21T06:57:19;17.50;99.90
45329;DHT22;31063;48.356;10.896;2023-05-21T06:59:45;17.60;99.90
45329;DHT22;31063;48.356;10.896;2023-05-21T07:02:10;17.70;99.90
45329;DHT22;31063;48.356;10.896;2023-05-21T07:04:36;17.80;99.90
45329;DHT22;31063;48.356;10.896;2023-05-21T07:07:02;17.90;99.90
45329;DHT22;31063;48.356;10.896;2023-05-21T07:09:30;18.00;99.90
45329;DHT22;31063;48.356;10.896;2023-05-21T07:11:56;18.10;99.90
45329;DHT22;31063;48.356;10.896;2023-05-21T07:14:25;17.10;99.90
45329;DHT22;31063;48.356;10.896;2023-05-21T07:16:51;18.30;99.90
45329;DHT22;31063;48.356;10.896;2023-05-21T07:19:16;18.50;99.90
45329;DHT22;31063;48.356;10.896;2023-05-21T07:21:42;18.50;99.90
45329;DHT22;31063;48.356;10.896;2023-05-21T07:24:07;18.60;99.90
45329;DHT22;31063;48.356;10.896;2023-05-21T07:26:33;18.70;99.90
45329;DHT22;31063;48.356;10.896;2023-05-21T07:28:59;18.80;99.90
45329;DHT22;31063;48.356;10.896;2023-05-21T07:31:24;18.90;99.90
45329;DHT22;31063;48.356;10.896;2023-05-21T07:33:50;18.90;99.90
45329;DHT22;31063;48.356;10.896;2023-05-21T07:36:15;18.90;99.90
45329;DHT22;31063;48.356;10.896;2023-05-21T07:38:42;18.90;99.90
45329;DHT22;31063;48.356;10.896;2023-05-21T07:41:08;19.00;99.90
45329;DHT22;31063;48.356;10.896;2023-05-21T07:43:34;19.10;99.90
45329;DHT22;31063;48.356;10.896;2023-05-21T07:46:00;19.20;99.90
45329;DHT22;31063;48.356;10.896;2023-05-21T07:48:26;19.20;99.90
45329;DHT22;31063;48.356;10.896;2023-05-21T07:50:52;19.30;99.90
45329;DHT22;31063;48.356;10.896;2023-05-21T07:53:18;19.30;99.90
45329;DHT22;31063;48.356;10.896;2023-05-21T07:55:44;19.30;99.90
45329;DHT22;31063;48.356;10.896;2023-05-21T07:58:16;19.30;99.90
45329;DHT22;31063;48.356;10.896;2023-05-21T08:00:44;19.40;99.90
45329;DHT22;31063;48.356;10.896;2023-05-21T08:03:14;19.50;99.90
45329;DHT22;31063;48.356;10.896;2023-05-21T08:05:44;19.60;99.90
45329;DHT22;31063;48.356;10.896;2023-05-21T08:08:17;19.70;99.90
45329;DHT22;31063;48.356;10.896;2023-05-21T08:10:43;19.80;99.90
45329;DHT22;31063;48.356;10.896;2023-05-21T08:13:10;19.90;99.90
45329;DHT22;31063;48.356;10.896;2023-05-21T08:15:36;19.90;99.90
45329;DHT22;31063;48.356;10.896;2023-05-21T08:18:02;20.00;99.90
45329;DHT22;31063;48.356;10.896;2023-05-21T08:20:27;20.10;99.90
45329;DHT22;31063;48.356;10.896;2023-05-21T08:22:55;20.10;99.90
45329;DHT22;31063;48.356;10.896;2023-05-21T08:25:21;20.20;99.90
45329;DHT22;31063;48.356;10.896;2023-05-21T08:27:47;20.30;99.90
45329;DHT22;31063;48.356;10.896;2023-05-21T08:30:12;20.40;99.90
45329;DHT22;31063;48.356;10.896;2023-05-21T08:32:39;20.60;99.90
45329;DHT22;31063;48.356;10.896;2023-05-21T08:35:05;20.70;99.90
45329;DHT22;31063;48.356;10.896;2023-05-21T08:37:31;20.80;99.90
45329;DHT22;31063;48.356;10.896;2023-05-21T08:39:57;21.00;99.90
45329;DHT22;31063;48.356;10.896;2023-05-21T08:42:39;21.00;99.90
45329;DHT22;31063;48.356;10.896;2023-05-21T08:45:08;21.10;99.90
45329;DHT22;31063;48.356;10.896;2023-05-21T08:47:35;21.20;99.90
45329;DHT22;31063;48.356;10.896;2023-05-21T08:50:06;21.30;99.90
45329;DHT22;31063;48.356;10.896;2023-05-21T08:52:33;21.30;99.90
45329;DHT22;31063;48.356;10.896;2023-05-21T08:54:59;21.40;99.90
45329;DHT22;31063;48.356;10.896;2023-05-21T08:57:26;21.50;99.90
45329;DHT22;31063;48.356;10.896;2023-05-21T08:59:53;21.60;99.90
45329;DHT22;31063;48.356;10.896;2023-05-21T09:02:18;21.70;99.90
45329;DHT22;31063;48.356;10.896;2023-05-21T09:04:45;21.80;99.90
45329;DHT22;31063;48.356;10.896;2023-05-21T09:07:14;21.90;99.90
45329;DHT22;31063;48.356;10.896;2023-05-21T09:09:47;22.10;99.90
45329;DHT22;31063;48.356;10.896;2023-05-21T09:12:13;22.20;99.90
45329;DHT22;31063;48.356;10.896;2023-05-21T09:14:40;22.40;99.90
45329;DHT22;31063;48.356;10.896;2023-05-21T09:17:07;22.50;99.90
45329;DHT22;31063;48.356;10.896;2023-05-21T09:19:32;22.60;99.90
45329;DHT22;31063;48.356;10.896;2023-05-21T09:22:02;22.70;99.90
45329;DHT22;31063;48.356;10.896;2023-05-21T09:24:31;22.70;99.90
45329;DHT22;31063;48.356;10.896;2023-05-21T09:26:57;22.60;99.90
45329;DHT22;31063;48.356;10.896;2023-05-21T09:29:26;22.80;99.90
45329;DHT22;31063;48.356;10.896;2023-05-21T09:31:51;22.90;99.90
45329;DHT22;31063;48.356;10.896;2023-05-21T09:34:19;23.00;99.90
45329;DHT22;31063;48.356;10.896;2023-05-21T09:36:47;22.70;99.90
45329;DHT22;31063;48.356;10.896;2023-05-21T09:39:26;22.70;99.90
45329;DHT22;31063;48.356;10.896;2023-05-21T09:41:56;22.80;99.90
45329;DHT22;31063;48.356;10.896;2023-05-21T09:44:22;22.90;99.90
45329;DHT22;31063;48.356;10.896;2023-05-21T09:46:48;23.00;99.90
45329;DHT22;31063;48.356;10.896;2023-05-21T09:49:24;23.00;99.90
45329;DHT22;31063;48.356;10.896;2023-05-21T09:51:57;23.10;99.90
45329;DHT22;31063;48.356;10.896;2023-05-21T09:54:23;23.20;99.90
45329;DHT22;31063;48.356;10.896;2023-05-21T09:56:50;23.40;99.90
45329;DHT22;31063;48.356;10.896;2023-05-21T09:59:19;23.50;99.90
45329;DHT22;31063;48.356;10.896;2023-05-21T10:01:46;23.50;99.90
45329;DHT22;31063;48.356;10.896;2023-05-21T10:04:14;23.50;99.90
45329;DHT22;31063;48.356;10.896;2023-05-21T10:06:45;23.40;99.90
45329;DHT22;31063;48.356;10.896;2023-05-21T10:09:14;23.50;99.90
45329;DHT22;31063;48.356;10.896;2023-05-21T10:11:43;23.50;99.90
45329;DHT22;31063;48.356;10.896;2023-05-21T10:19:27;23.80;99.90
45329;DHT22;31063;48.356;10.896;2023-05-21T10:36:35;24.70;99.90
45329;DHT22;31063;48.356;10.896;2023-05-21T10:39:02;24.90;99.90
45329;DHT22;31063;48.356;10.896;2023-05-21T10:44:14;25.10;99.90
45329;DHT22;31063;48.356;10.896;2023-05-21T11:00:12;25.20;99.90
45329;DHT22;31063;48.356;10.896;2023-05-21T11:02:39;25.10;99.90
45329;DHT22;31063;48.356;10.896;2023-05-21T11:05:06;25.30;99.90
45329;DHT22;31063;48.356;10.896;2023-05-21T11:10:39;25.50;99.90
